McComb, MS (39648)

11:18 AM CDT on July 27, 2016 (GMT -0500)
HADS | | Change Station

Elev 226 ft 31.18 °N, 90.28 °W | Updated 1 hour ago

Overcast
Overcast
0.0 °F
Feels Like 0.0 °F
N
0.0
Wind Variable Wind from North
Gusts 0.0 mph

Today
High -- | Low -- °F
--% Chance of Precip.
Yesterday
High -- | Low -- °F
Precip. -- in
Pressure 30.02 in
Visibility 10.0 miles
Clouds Mostly Cloudy 1000 ft
Mostly Cloudy 1500 ft
Overcast 3000 ft
Dew Point Not available.
Humidity Not available.
Rainfall in
Snow Depth Not available.
6:15 AM 8:00 PM
Last Quarter, 42% visible
METAR KMCB 271553Z AUTO 20010KT 10SM BKN010 BKN015 OVC030 26/23 A3004 RMK AO2 CIG 008V012 SLP165 T02560233
Pressure 30.02 in
Visibility 10.0 miles
Clouds Mostly Cloudy 1000 ft
Mostly Cloudy 1500 ft
Overcast 3000 ft
Dew Point Not available.
Humidity Not available.
Rainfall in
Snow Depth Not available.
6:15 AM 8:00 PM
Last Quarter, 42% visible
METAR KMCB 271553Z AUTO 20010KT 10SM BKN010 BKN015 OVC030 26/23 A3004 RMK AO2 CIG 008V012 SLP165 T02560233

10-Day Weather Forecast

Almanac

Astronomy

Jul. 27, 2016 Rise Set
Actual Time
Civil Twilight
Nautical Twilight
Astronomical Twilight
Moon
Length of Visible Light
Length of Day
Tomorrow will be .
, % of the Moon is Illuminated

Today's Extremes

State Highs State Lows

Community

WunderPhotos

Upload Photos

1,927,877 photos uploaded!

WunderBlog® & News

Nearby

Air Quality

  Air Quality AQ Index Pollutant
Not available.

Snow Depth

Station Depth Elevation

Earthquake Activity

City Distance Mag. Time & Date
Minimum magnitude displayed is 2.5.

Coastal Water Temperatures

Place Temperature

Stations

Nearby Weather Stations

Station Location Temp. Windchill Dew Point Humidity Wind Precip. Elev Updated Type
                   

Watches & Warnings

There are currently no watches in effect.